sensor_id;sensor_type;location;lat;lon;timestamp;P1;durP1;ratioP1;P2;durP2;ratioP2
69414;SDS011;56608;43.530;-5.652;2022-12-10T00:00:00;8.18;;;3.10;;
69414;SDS011;56608;43.530;-5.652;2022-12-10T00:01:09;4.40;;;2.20;;
69414;SDS011;56608;43.530;-5.652;2022-12-10T00:02:13;8.45;;;2.50;;
69414;SDS011;56608;43.530;-5.652;2022-12-10T00:03:13;5.40;;;2.40;;
69414;SDS011;56608;43.530;-5.652;2022-12-10T00:04:15;5.37;;;2.70;;
69414;SDS011;56608;43.530;-5.652;2022-12-10T00:05:17;8.52;;;2.60;;
69414;SDS011;56608;43.530;-5.652;2022-12-10T00:06:20;8.07;;;2.50;;
69414;SDS011;56608;43.530;-5.652;2022-12-10T00:07:23;7.95;;;3.10;;
69414;SDS011;56608;43.530;-5.652;2022-12-10T00:08:25;7.65;;;2.85;;
69414;SDS011;56608;43.530;-5.652;2022-12-10T00:09:25;7.80;;;2.73;;
69414;SDS011;56608;43.530;-5.652;2022-12-10T00:10:27;7.18;;;2.92;;
69414;SDS011;56608;43.530;-5.652;2022-12-10T00:11:29;6.20;;;3.05;;
69414;SDS011;56608;43.530;-5.652;2022-12-10T00:12:30;6.50;;;2.60;;
69414;SDS011;56608;43.530;-5.652;2022-12-10T00:13:32;10.00;;;2.70;;
69414;SDS011;56608;43.530;-5.652;2022-12-10T00:14:34;5.12;;;2.67;;
69414;SDS011;56608;43.530;-5.652;2022-12-10T00:15:35;7.32;;;2.85;;
69414;SDS011;56608;43.530;-5.652;2022-12-10T00:16:37;6.53;;;2.67;;
69414;SDS011;56608;43.530;-5.652;2022-12-10T00:17:38;6.53;;;2.90;;
69414;SDS011;56608;43.530;-5.652;2022-12-10T00:18:40;6.95;;;3.65;;
69414;SDS011;56608;43.530;-5.652;2022-12-10T00:19:41;6.70;;;2.50;;
69414;SDS011;56608;43.530;-5.652;2022-12-10T00:20:43;12.05;;;3.53;;
69414;SDS011;56608;43.530;-5.652;2022-12-10T00:21:44;10.18;;;3.97;;
69414;SDS011;56608;43.530;-5.652;2022-12-10T00:22:46;10.68;;;3.87;;
69414;SDS011;56608;43.530;-5.652;2022-12-10T00:23:48;10.40;;;3.47;;
69414;SDS011;56608;43.530;-5.652;2022-12-10T00:25:50;11.43;;;3.42;;
69414;SDS011;56608;43.530;-5.652;2022-12-10T00:26:52;7.80;;;2.90;;
69414;SDS011;56608;43.530;-5.652;2022-12-10T00:27:53;9.35;;;3.80;;
69414;SDS011;56608;43.530;-5.652;2022-12-10T00:28:55;7.82;;;3.25;;
69414;SDS011;56608;43.530;-5.652;2022-12-10T00:29:57;6.90;;;3.00;;
69414;SDS011;56608;43.530;-5.652;2022-12-10T00:31:05;10.20;;;3.45;;
69414;SDS011;56608;43.530;-5.652;2022-12-10T00:32:09;6.93;;;2.92;;
69414;SDS011;56608;43.530;-5.652;2022-12-10T00:34:11;9.27;;;3.62;;
69414;SDS011;56608;43.530;-5.652;2022-12-10T00:35:13;9.50;;;3.45;;
69414;SDS011;56608;43.530;-5.652;2022-12-10T00:36:16;9.90;;;3.10;;
69414;SDS011;56608;43.530;-5.652;2022-12-10T00:37:23;12.77;;;3.45;;
69414;SDS011;56608;43.530;-5.652;2022-12-10T00:38:24;7.72;;;3.35;;
69414;SDS011;56608;43.530;-5.652;2022-12-10T00:39:26;9.00;;;3.28;;
69414;SDS011;56608;43.530;-5.652;2022-12-10T00:40:28;8.40;;;3.83;;
69414;SDS011;56608;43.530;-5.652;2022-12-10T00:41:29;7.90;;;3.95;;
69414;SDS011;56608;43.530;-5.652;2022-12-10T00:43:32;8.48;;;3.55;;
69414;SDS011;56608;43.530;-5.652;2022-12-10T00:44:34;10.80;;;3.92;;
69414;SDS011;56608;43.530;-5.652;2022-12-10T00:45:36;10.30;;;4.10;;
69414;SDS011;56608;43.530;-5.652;2022-12-10T00:46:37;8.50;;;3.47;;
69414;SDS011;56608;43.530;-5.652;2022-12-10T00:48:40;8.13;;;3.37;;
69414;SDS011;56608;43.530;-5.652;2022-12-10T00:49:43;7.70;;;3.40;;
69414;SDS011;56608;43.530;-5.652;2022-12-10T00:50:44;11.50;;;3.60;;
69414;SDS011;56608;43.530;-5.652;2022-12-10T00:52:05;10.60;;;3.70;;
69414;SDS011;56608;43.530;-5.652;2022-12-10T00:53:07;9.95;;;3.45;;
69414;SDS011;56608;43.530;-5.652;2022-12-10T00:54:08;11.95;;;4.15;;
69414;SDS011;56608;43.530;-5.652;2022-12-10T00:55:12;9.13;;;3.65;;
69414;SDS011;56608;43.530;-5.652;2022-12-10T00:56:15;8.60;;;3.85;;
69414;SDS011;56608;43.530;-5.652;2022-12-10T00:57:18;11.40;;;3.92;;
69414;SDS011;56608;43.530;-5.652;2022-12-10T00:58:19;6.03;;;3.17;;
69414;SDS011;56608;43.530;-5.652;2022-12-10T00:59:21;7.10;;;3.30;;
69414;SDS011;56608;43.530;-5.652;2022-12-10T01:00:22;6.53;;;3.17;;
69414;SDS011;56608;43.530;-5.652;2022-12-10T01:01:26;9.18;;;3.30;;
69414;SDS011;56608;43.530;-5.652;2022-12-10T01:02:29;7.50;;;3.30;;
69414;SDS011;56608;43.530;-5.652;2022-12-10T01:03:31;10.30;;;3.72;;
69414;SDS011;56608;43.530;-5.652;2022-12-10T01:04:32;7.00;;;2.72;;
69414;SDS011;56608;43.530;-5.652;2022-12-10T01:05:34;8.13;;;3.03;;
69414;SDS011;56608;43.530;-5.652;2022-12-10T01:06:36;6.45;;;2.85;;
69414;SDS011;56608;43.530;-5.652;2022-12-10T01:07:42;7.57;;;3.00;;
69414;SDS011;56608;43.530;-5.652;2022-12-10T01:08:43;5.65;;;2.95;;
69414;SDS011;56608;43.530;-5.652;2022-12-10T01:09:45;6.90;;;3.08;;
69414;SDS011;56608;43.530;-5.652;2022-12-10T01:10:52;7.45;;;2.75;;
69414;SDS011;56608;43.530;-5.652;2022-12-10T01:11:54;8.77;;;2.72;;
69414;SDS011;56608;43.530;-5.652;2022-12-10T01:12:57;5.05;;;2.60;;
69414;SDS011;56608;43.530;-5.652;2022-12-10T01:13:58;6.07;;;2.80;;
69414;SDS011;56608;43.530;-5.652;2022-12-10T01:16:05;6.60;;;2.87;;
69414;SDS011;56608;43.530;-5.652;2022-12-10T01:17:08;11.55;;;3.10;;
69414;SDS011;56608;43.530;-5.652;2022-12-10T01:18:09;5.37;;;2.92;;
69414;SDS011;56608;43.530;-5.652;2022-12-10T01:19:11;6.60;;;2.87;;
69414;SDS011;56608;43.530;-5.652;2022-12-10T01:20:13;8.35;;;2.97;;
69414;SDS011;56608;43.530;-5.652;2022-12-10T01:21:16;8.90;;;2.80;;
69414;SDS011;56608;43.530;-5.652;2022-12-10T01:22:18;5.62;;;2.87;;
69414;SDS011;56608;43.530;-5.652;2022-12-10T01:23:20;6.23;;;2.97;;
69414;SDS011;56608;43.530;-5.652;2022-12-10T01:24:21;8.05;;;3.20;;
69414;SDS011;56608;43.530;-5.652;2022-12-10T01:25:24;6.60;;;2.50;;
69414;SDS011;56608;43.530;-5.652;2022-12-10T01:26:25;4.63;;;2.80;;
69414;SDS011;56608;43.530;-5.652;2022-12-10T01:27:28;6.60;;;2.72;;
69414;SDS011;56608;43.530;-5.652;2022-12-10T01:28:30;7.43;;;2.50;;
69414;SDS011;56608;43.530;-5.652;2022-12-10T01:29:35;6.62;;;2.75;;
69414;SDS011;56608;43.530;-5.652;2022-12-10T01:30:37;8.85;;;2.95;;
69414;SDS011;56608;43.530;-5.652;2022-12-10T01:31:38;6.78;;;2.78;;
69414;SDS011;56608;43.530;-5.652;2022-12-10T01:32:40;6.32;;;2.75;;
69414;SDS011;56608;43.530;-5.652;2022-12-10T01:33:42;6.57;;;2.85;;
69414;SDS011;56608;43.530;-5.652;2022-12-10T01:34:44;6.00;;;2.55;;
69414;SDS011;56608;43.530;-5.652;2022-12-10T01:35:45;6.40;;;2.35;;
69414;SDS011;56608;43.530;-5.652;2022-12-10T01:36:48;4.90;;;2.90;;
69414;SDS011;56608;43.530;-5.652;2022-12-10T01:37:51;7.90;;;2.95;;
69414;SDS011;56608;43.530;-5.652;2022-12-10T01:38:52;5.53;;;2.45;;
69414;SDS011;56608;43.530;-5.652;2022-12-10T01:39:54;5.65;;;2.92;;
69414;SDS011;56608;43.530;-5.652;2022-12-10T01:40:56;9.75;;;2.80;;
69414;SDS011;56608;43.530;-5.652;2022-12-10T01:41:58;6.62;;;2.60;;
69414;SDS011;56608;43.530;-5.652;2022-12-10T01:43:00;4.60;;;2.65;;
69414;SDS011;56608;43.530;-5.652;2022-12-10T01:44:56;7.37;;;2.63;;
69414;SDS011;56608;43.530;-5.652;2022-12-10T01:45:26;5.93;;;2.75;;
69414;SDS011;56608;43.530;-5.652;2022-12-10T01:46:31;8.30;;;3.20;;
69414;SDS011;56608;43.530;-5.652;2022-12-10T01:47:35;5.75;;;2.37;;
69414;SDS011;56608;43.530;-5.652;2022-12-10T01:48:36;6.35;;;2.85;;
69414;SDS011;56608;43.530;-5.652;2022-12-10T01:49:39;3.90;;;2.65;;
69414;SDS011;56608;43.530;-5.652;2022-12-10T01:50:41;7.78;;;2.60;;
69414;SDS011;56608;43.530;-5.652;2022-12-10T01:51:44;10.27;;;2.83;;
69414;SDS011;56608;43.530;-5.652;2022-12-10T01:52:47;7.03;;;3.05;;
69414;SDS011;56608;43.530;-5.652;2022-12-10T01:53:50;8.57;;;2.78;;
69414;SDS011;56608;43.530;-5.652;2022-12-10T01:54:52;8.38;;;3.25;;
69414;SDS011;56608;43.530;-5.652;2022-12-10T01:55:52;6.40;;;2.30;;
69414;SDS011;56608;43.530;-5.652;2022-12-10T01:56:58;4.70;;;2.75;;
69414;SDS011;56608;43.530;-5.652;2022-12-10T01:58:06;8.82;;;2.58;;
69414;SDS011;56608;43.530;-5.652;2022-12-10T02:00:09;7.67;;;2.67;;
69414;SDS011;56608;43.530;-5.652;2022-12-10T02:01:15;7.80;;;2.35;;
69414;SDS011;56608;43.530;-5.652;2022-12-10T02:03:58;9.23;;;2.85;;
69414;SDS011;56608;43.530;-5.652;2022-12-10T02:08:08;7.50;;;2.45;;
69414;SDS011;56608;43.530;-5.652;2022-12-10T02:09:26;7.07;;;2.78;;
69414;SDS011;56608;43.530;-5.652;2022-12-10T02:10:44;4.55;;;2.20;;
69414;SDS011;56608;43.530;-5.652;2022-12-10T02:14:30;4.85;;;2.78;;
69414;SDS011;56608;43.530;-5.652;2022-12-10T02:15:41;6.45;;;2.85;;
69414;SDS011;56608;43.530;-5.652;2022-12-10T02:16:54;7.10;;;3.00;;
69414;SDS011;56608;43.530;-5.652;2022-12-10T02:18:35;6.22;;;2.78;;
69414;SDS011;56608;43.530;-5.652;2022-12-10T02:19:57;7.07;;;2.60;;
69414;SDS011;56608;43.530;-5.652;2022-12-10T02:21:08;4.87;;;2.47;;
69414;SDS011;56608;43.530;-5.652;2022-12-10T02:22:17;7.62;;;2.35;;
69414;SDS011;56608;43.530;-5.652;2022-12-10T02:24:29;5.60;;;2.72;;
69414;SDS011;56608;43.530;-5.652;2022-12-10T02:25:40;7.53;;;2.47;;
69414;SDS011;56608;43.530;-5.652;2022-12-10T02:26:50;9.00;;;2.65;;
69414;SDS011;56608;43.530;-5.652;2022-12-10T02:28:05;6.47;;;2.25;;
69414;SDS011;56608;43.530;-5.652;2022-12-10T02:29:28;5.95;;;2.83;;
69414;SDS011;56608;43.530;-5.652;2022-12-10T02:30:31;6.72;;;2.15;;
69414;SDS011;56608;43.530;-5.652;2022-12-10T02:31:34;5.85;;;2.70;;
69414;SDS011;56608;43.530;-5.652;2022-12-10T02:32:38;6.53;;;2.40;;
69414;SDS011;56608;43.530;-5.652;2022-12-10T02:33:43;8.27;;;3.15;;
69414;SDS011;56608;43.530;-5.652;2022-12-10T02:34:50;9.02;;;2.50;;
69414;SDS011;56608;43.530;-5.652;2022-12-10T02:35:55;5.97;;;2.58;;
69414;SDS011;56608;43.530;-5.652;2022-12-10T02:37:01;7.95;;;2.40;;
69414;SDS011;56608;43.530;-5.652;2022-12-10T02:38:15;4.93;;;2.45;;
69414;SDS011;56608;43.530;-5.652;2022-12-10T02:39:27;5.20;;;2.30;;
69414;SDS011;56608;43.530;-5.652;2022-12-10T02:40:32;7.22;;;2.95;;
69414;SDS011;56608;43.530;-5.652;2022-12-10T02:41:37;8.52;;;2.83;;
69414;SDS011;56608;43.530;-5.652;2022-12-10T02:42:43;7.22;;;2.58;;
69414;SDS011;56608;43.530;-5.652;2022-12-10T02:43:51;6.10;;;2.30;;
69414;SDS011;56608;43.530;-5.652;2022-12-10T02:44:54;3.25;;;2.22;;
69414;SDS011;56608;43.530;-5.652;2022-12-10T02:45:57;5.82;;;2.37;;
69414;SDS011;56608;43.530;-5.652;2022-12-10T02:47:00;6.97;;;2.42;;
69414;SDS011;56608;43.530;-5.652;2022-12-10T02:48:03;8.00;;;2.30;;
69414;SDS011;56608;43.530;-5.652;2022-12-10T02:49:06;5.18;;;2.30;;
69414;SDS011;56608;43.530;-5.652;2022-12-10T02:50:09;6.95;;;2.45;;
69414;SDS011;56608;43.530;-5.652;2022-12-10T02:51:13;6.95;;;2.53;;
69414;SDS011;56608;43.530;-5.652;2022-12-10T02:52:16;4.60;;;2.25;;
69414;SDS011;56608;43.530;-5.652;2022-12-10T02:53:20;7.12;;;2.35;;
69414;SDS011;56608;43.530;-5.652;2022-12-10T02:54:37;6.40;;;2.60;;
69414;SDS011;56608;43.530;-5.652;2022-12-10T02:55:55;5.70;;;1.92;;
69414;SDS011;56608;43.530;-5.652;2022-12-10T02:58:36;5.60;;;2.00;;
69414;SDS011;56608;43.530;-5.652;2022-12-10T03:04:03;6.65;;;2.10;;
69414;SDS011;56608;43.530;-5.652;2022-12-10T03:05:16;7.47;;;2.30;;
69414;SDS011;56608;43.530;-5.652;2022-12-10T03:06:23;7.40;;;2.30;;
69414;SDS011;56608;43.530;-5.652;2022-12-10T03:07:37;8.05;;;2.10;;
69414;SDS011;56608;43.530;-5.652;2022-12-10T03:09:56;5.28;;;2.42;;
69414;SDS011;56608;43.530;-5.652;2022-12-10T03:12:28;6.70;;;2.42;;
69414;SDS011;56608;43.530;-5.652;2022-12-10T03:13:37;6.60;;;2.15;;
69414;SDS011;56608;43.530;-5.652;2022-12-10T03:14:43;5.03;;;2.10;;
69414;SDS011;56608;43.530;-5.652;2022-12-10T03:15:46;9.48;;;2.78;;
69414;SDS011;56608;43.530;-5.652;2022-12-10T03:16:54;3.70;;;2.20;;
69414;SDS011;56608;43.530;-5.652;2022-12-10T03:17:57;6.30;;;2.40;;
69414;SDS011;56608;43.530;-5.652;2022-12-10T03:19:04;6.53;;;2.40;;
69414;SDS011;56608;43.530;-5.652;2022-12-10T03:20:09;5.00;;;2.20;;
69414;SDS011;56608;43.530;-5.652;2022-12-10T03:21:13;6.65;;;2.60;;
69414;SDS011;56608;43.530;-5.652;2022-12-10T03:22:17;5.20;;;2.45;;
69414;SDS011;56608;43.530;-5.652;2022-12-10T03:23:21;5.45;;;2.20;;
69414;SDS011;56608;43.530;-5.652;2022-12-10T03:24:23;5.75;;;2.25;;
69414;SDS011;56608;43.530;-5.652;2022-12-10T03:25:27;6.22;;;2.37;;
69414;SDS011;56608;43.530;-5.652;2022-12-10T03:26:31;7.75;;;2.70;;
69414;SDS011;56608;43.530;-5.652;2022-12-10T03:27:33;5.18;;;2.50;;
69414;SDS011;56608;43.530;-5.652;2022-12-10T03:28:39;7.97;;;2.20;;
69414;SDS011;56608;43.530;-5.652;2022-12-10T03:29:48;6.72;;;2.03;;
69414;SDS011;56608;43.530;-5.652;2022-12-10T03:30:52;7.28;;;2.00;;
69414;SDS011;56608;43.530;-5.652;2022-12-10T03:31:56;5.95;;;2.45;;
69414;SDS011;56608;43.530;-5.652;2022-12-10T03:33:00;8.48;;;2.20;;
69414;SDS011;56608;43.530;-5.652;2022-12-10T03:34:02;7.28;;;2.20;;
69414;SDS011;56608;43.530;-5.652;2022-12-10T03:35:04;5.97;;;2.42;;
69414;SDS011;56608;43.530;-5.652;2022-12-10T03:36:07;6.47;;;2.12;;
69414;SDS011;56608;43.530;-5.652;2022-12-10T03:37:09;5.15;;;2.25;;
69414;SDS011;56608;43.530;-5.652;2022-12-10T03:38:13;6.47;;;1.85;;
69414;SDS011;56608;43.530;-5.652;2022-12-10T03:39:15;5.45;;;2.17;;
69414;SDS011;56608;43.530;-5.652;2022-12-10T03:40:18;4.00;;;1.92;;
69414;SDS011;56608;43.530;-5.652;2022-12-10T03:41:22;5.62;;;2.22;;
69414;SDS011;56608;43.530;-5.652;2022-12-10T03:42:24;5.70;;;2.40;;
69414;SDS011;56608;43.530;-5.652;2022-12-10T03:43:26;8.43;;;2.50;;
69414;SDS011;56608;43.530;-5.652;2022-12-10T03:44:28;6.20;;;2.85;;
69414;SDS011;56608;43.530;-5.652;2022-12-10T03:45:34;5.00;;;2.78;;
69414;SDS011;56608;43.530;-5.652;2022-12-10T03:46:34;5.55;;;2.80;;
69414;SDS011;56608;43.530;-5.652;2022-12-10T03:47:36;4.45;;;2.85;;
69414;SDS011;56608;43.530;-5.652;2022-12-10T03:48:37;6.80;;;3.00;;
69414;SDS011;56608;43.530;-5.652;2022-12-10T03:49:38;5.30;;;3.00;;
69414;SDS011;56608;43.530;-5.652;2022-12-10T03:50:40;11.32;;;3.30;;
69414;SDS011;56608;43.530;-5.652;2022-12-10T03:51:42;5.47;;;3.27;;
69414;SDS011;56608;43.530;-5.652;2022-12-10T03:52:43;5.80;;;3.28;;
69414;SDS011;56608;43.530;-5.652;2022-12-10T03:53:45;8.93;;;3.30;;
69414;SDS011;56608;43.530;-5.652;2022-12-10T03:54:46;5.65;;;3.50;;
69414;SDS011;56608;43.530;-5.652;2022-12-10T03:55:48;6.40;;;2.92;;
69414;SDS011;56608;43.530;-5.652;2022-12-10T03:56:48;8.70;;;3.70;;
69414;SDS011;56608;43.530;-5.652;2022-12-10T03:57:50;7.00;;;3.12;;
69414;SDS011;56608;43.530;-5.652;2022-12-10T03:58:51;7.10;;;3.12;;
69414;SDS011;56608;43.530;-5.652;2022-12-10T03:59:53;9.15;;;2.75;;
69414;SDS011;56608;43.530;-5.652;2022-12-10T04:00:53;6.97;;;3.13;;
69414;SDS011;56608;43.530;-5.652;2022-12-10T04:01:55;6.68;;;3.00;;
69414;SDS011;56608;43.530;-5.652;2022-12-10T04:02:57;6.95;;;3.10;;
69414;SDS011;56608;43.530;-5.652;2022-12-10T04:03:58;4.37;;;2.85;;
69414;SDS011;56608;43.530;-5.652;2022-12-10T04:05:00;9.27;;;2.97;;
69414;SDS011;56608;43.530;-5.652;2022-12-10T04:06:05;6.55;;;2.85;;
69414;SDS011;56608;43.530;-5.652;2022-12-10T04:07:08;9.93;;;3.42;;
69414;SDS011;56608;43.530;-5.652;2022-12-10T04:08:10;8.05;;;2.90;;
69414;SDS011;56608;43.530;-5.652;2022-12-10T04:09:11;7.43;;;2.80;;
69414;SDS011;56608;43.530;-5.652;2022-12-10T04:10:13;3.67;;;2.70;;
69414;SDS011;56608;43.530;-5.652;2022-12-10T04:11:15;5.70;;;2.75;;
69414;SDS011;56608;43.530;-5.652;2022-12-10T04:12:17;9.27;;;3.95;;
69414;SDS011;56608;43.530;-5.652;2022-12-10T04:13:18;8.60;;;3.13;;
69414;SDS011;56608;43.530;-5.652;2022-12-10T04:14:38;7.18;;;2.40;;
69414;SDS011;56608;43.530;-5.652;2022-12-10T04:15:58;8.50;;;2.75;;
69414;SDS011;56608;43.530;-5.652;2022-12-10T04:17:18;7.60;;;2.45;;
69414;SDS011;56608;43.530;-5.652;2022-12-10T04:18:19;5.12;;;2.65;;
69414;SDS011;56608;43.530;-5.652;2022-12-10T04:19:20;7.45;;;2.95;;
69414;SDS011;56608;43.530;-5.652;2022-12-10T04:20:22;6.37;;;2.60;;
69414;SDS011;56608;43.530;-5.652;2022-12-10T04:21:42;6.25;;;2.85;;
69414;SDS011;56608;43.530;-5.652;2022-12-10T04:23:03;5.62;;;2.65;;
69414;SDS011;56608;43.530;-5.652;2022-12-10T04:24:24;4.85;;;2.65;;
69414;SDS011;56608;43.530;-5.652;2022-12-10T04:25:45;6.35;;;2.70;;
69414;SDS011;56608;43.530;-5.652;2022-12-10T04:27:06;4.65;;;2.35;;
69414;SDS011;56608;43.530;-5.652;2022-12-10T04:28:10;6.65;;;2.85;;
69414;SDS011;56608;43.530;-5.652;2022-12-10T04:29:11;5.95;;;3.00;;
69414;SDS011;56608;43.530;-5.652;2022-12-10T04:30:12;7.60;;;3.10;;
69414;SDS011;56608;43.530;-5.652;2022-12-10T04:31:13;4.50;;;2.70;;
69414;SDS011;56608;43.530;-5.652;2022-12-10T04:32:15;7.70;;;3.22;;
69414;SDS011;56608;43.530;-5.652;2022-12-10T04:33:17;8.77;;;3.10;;
69414;SDS011;56608;43.530;-5.652;2022-12-10T04:34:19;7.35;;;3.00;;
69414;SDS011;56608;43.530;-5.652;2022-12-10T04:35:21;5.20;;;3.10;;
69414;SDS011;56608;43.530;-5.652;2022-12-10T04:36:22;6.00;;;3.25;;
69414;SDS011;56608;43.530;-5.652;2022-12-10T04:37:24;9.23;;;3.30;;
69414;SDS011;56608;43.530;-5.652;2022-12-10T04:38:26;6.32;;;3.00;;
69414;SDS011;56608;43.530;-5.652;2022-12-10T04:39:27;7.93;;;2.97;;
69414;SDS011;56608;43.530;-5.652;2022-12-10T04:40:29;6.57;;;3.10;;
69414;SDS011;56608;43.530;-5.652;2022-12-10T04:41:30;6.50;;;2.80;;
69414;SDS011;56608;43.530;-5.652;2022-12-10T04:42:32;10.35;;;3.17;;
69414;SDS011;56608;43.530;-5.652;2022-12-10T04:43:33;4.80;;;2.60;;
69414;SDS011;56608;43.530;-5.652;2022-12-10T04:44:34;4.77;;;2.33;;
69414;SDS011;56608;43.530;-5.652;2022-12-10T04:45:36;5.03;;;2.20;;
69414;SDS011;56608;43.530;-5.652;2022-12-10T04:46:37;5.50;;;2.50;;
69414;SDS011;56608;43.530;-5.652;2022-12-10T04:47:39;9.05;;;2.17;;
69414;SDS011;56608;43.530;-5.652;2022-12-10T04:48:40;5.15;;;2.50;;
69414;SDS011;56608;43.530;-5.652;2022-12-10T04:49:42;5.50;;;2.30;;
69414;SDS011;56608;43.530;-5.652;2022-12-10T04:50:43;6.20;;;2.30;;
69414;SDS011;56608;43.530;-5.652;2022-12-10T04:51:47;5.40;;;2.33;;
69414;SDS011;56608;43.530;-5.652;2022-12-10T04:52:48;6.00;;;2.05;;
69414;SDS011;56608;43.530;-5.652;2022-12-10T04:53:50;6.37;;;2.17;;
69414;SDS011;56608;43.530;-5.652;2022-12-10T04:54:51;3.30;;;2.00;;
69414;SDS011;56608;43.530;-5.652;2022-12-10T04:55:52;5.45;;;2.20;;
69414;SDS011;56608;43.530;-5.652;2022-12-10T04:56:54;6.47;;;2.53;;
69414;SDS011;56608;43.530;-5.652;2022-12-10T04:57:55;6.72;;;2.00;;
69414;SDS011;56608;43.530;-5.652;2022-12-10T04:58:58;7.57;;;2.30;;
69414;SDS011;56608;43.530;-5.652;2022-12-10T05:00:00;3.65;;;2.33;;
69414;SDS011;56608;43.530;-5.652;2022-12-10T05:01:01;9.65;;;2.60;;
69414;SDS011;56608;43.530;-5.652;2022-12-10T05:02:04;5.37;;;2.20;;
69414;SDS011;56608;43.530;-5.652;2022-12-10T05:03:07;6.18;;;2.35;;
69414;SDS011;56608;43.530;-5.652;2022-12-10T05:04:09;5.35;;;2.30;;
69414;SDS011;56608;43.530;-5.652;2022-12-10T05:05:13;4.93;;;2.10;;
69414;SDS011;56608;43.530;-5.652;2022-12-10T05:06:14;4.10;;;2.00;;
69414;SDS011;56608;43.530;-5.652;2022-12-10T05:07:16;8.85;;;2.28;;
69414;SDS011;56608;43.530;-5.652;2022-12-10T05:08:18;6.20;;;2.45;;
69414;SDS011;56608;43.530;-5.652;2022-12-10T05:09:19;6.07;;;2.25;;
69414;SDS011;56608;43.530;-5.652;2022-12-10T05:10:21;5.20;;;2.50;;
69414;SDS011;56608;43.530;-5.652;2022-12-10T05:11:24;5.70;;;2.50;;
69414;SDS011;56608;43.530;-5.652;2022-12-10T05:12:28;5.65;;;2.28;;
69414;SDS011;56608;43.530;-5.652;2022-12-10T05:13:29;4.90;;;2.20;;
69414;SDS011;56608;43.530;-5.652;2022-12-10T05:14:31;4.03;;;1.83;;
69414;SDS011;56608;43.530;-5.652;2022-12-10T05:15:32;4.70;;;2.28;;
69414;SDS011;56608;43.530;-5.652;2022-12-10T05:16:34;3.15;;;1.87;;
69414;SDS011;56608;43.530;-5.652;2022-12-10T05:17:34;6.00;;;1.93;;
69414;SDS011;56608;43.530;-5.652;2022-12-10T05:18:36;5.35;;;2.00;;
69414;SDS011;56608;43.530;-5.652;2022-12-10T05:19:38;6.70;;;2.37;;
69414;SDS011;56608;43.530;-5.652;2022-12-10T05:20:38;5.63;;;2.47;;
69414;SDS011;56608;43.530;-5.652;2022-12-10T05:21:40;9.25;;;3.08;;
69414;SDS011;56608;43.530;-5.652;2022-12-10T05:23:00;4.97;;;2.12;;
69414;SDS011;56608;43.530;-5.652;2022-12-10T05:24:20;5.18;;;2.15;;
69414;SDS011;56608;43.530;-5.652;2022-12-10T05:26:23;6.90;;;2.27;;
69414;SDS011;56608;43.530;-5.652;2022-12-10T05:27:24;8.05;;;2.05;;
69414;SDS011;56608;43.530;-5.652;2022-12-10T05:28:27;5.28;;;2.28;;
69414;SDS011;56608;43.530;-5.652;2022-12-10T05:29:29;4.28;;;2.30;;
69414;SDS011;56608;43.530;-5.652;2022-12-10T05:30:30;7.78;;;3.05;;
69414;SDS011;56608;43.530;-5.652;2022-12-10T05:31:35;5.25;;;2.50;;
69414;SDS011;56608;43.530;-5.652;2022-12-10T05:33:37;6.17;;;2.60;;
69414;SDS011;56608;43.530;-5.652;2022-12-10T05:34:39;6.82;;;2.60;;
69414;SDS011;56608;43.530;-5.652;2022-12-10T05:35:41;6.60;;;2.55;;
69414;SDS011;56608;43.530;-5.652;2022-12-10T05:36:42;6.20;;;3.37;;
69414;SDS011;56608;43.530;-5.652;2022-12-10T05:37:43;7.33;;;2.77;;
69414;SDS011;56608;43.530;-5.652;2022-12-10T05:38:44;7.28;;;3.10;;
69414;SDS011;56608;43.530;-5.652;2022-12-10T05:39:47;4.03;;;2.55;;
69414;SDS011;56608;43.530;-5.652;2022-12-10T05:40:49;4.70;;;2.45;;
69414;SDS011;56608;43.530;-5.652;2022-12-10T05:41:51;6.70;;;2.37;;
69414;SDS011;56608;43.530;-5.652;2022-12-10T05:42:52;5.45;;;2.28;;
69414;SDS011;56608;43.530;-5.652;2022-12-10T05:43:53;6.95;;;2.70;;
69414;SDS011;56608;43.530;-5.652;2022-12-10T05:44:55;5.15;;;2.42;;
69414;SDS011;56608;43.530;-5.652;2022-12-10T05:46:00;7.20;;;2.67;;
69414;SDS011;56608;43.530;-5.652;2022-12-10T05:47:02;6.00;;;3.00;;
69414;SDS011;56608;43.530;-5.652;2022-12-10T05:48:03;6.07;;;2.50;;
69414;SDS011;56608;43.530;-5.652;2022-12-10T05:51:10;4.37;;;1.90;;
69414;SDS011;56608;43.530;-5.652;2022-12-10T05:52:13;3.40;;;1.73;;
69414;SDS011;56608;43.530;-5.652;2022-12-10T05:53:14;6.40;;;2.45;;
69414;SDS011;56608;43.530;-5.652;2022-12-10T05:54:18;4.90;;;2.40;;
69414;SDS011;56608;43.530;-5.652;2022-12-10T05:55:19;5.43;;;2.72;;
69414;SDS011;56608;43.530;-5.652;2022-12-10T05:56:21;5.93;;;2.45;;
69414;SDS011;56608;43.530;-5.652;2022-12-10T05:57:24;8.27;;;2.50;;
69414;SDS011;56608;43.530;-5.652;2022-12-10T05:58:26;6.20;;;2.80;;
69414;SDS011;56608;43.530;-5.652;2022-12-10T05:59:28;8.23;;;2.60;;
69414;SDS011;56608;43.530;-5.652;2022-12-10T06:00:29;4.27;;;2.57;;
69414;SDS011;56608;43.530;-5.652;2022-12-10T06:01:32;5.37;;;2.60;;
69414;SDS011;56608;43.530;-5.652;2022-12-10T06:02:35;7.12;;;2.33;;
69414;SDS011;56608;43.530;-5.652;2022-12-10T06:03:37;6.15;;;2.60;;
69414;SDS011;56608;43.530;-5.652;2022-12-10T06:04:38;6.55;;;2.37;;
69414;SDS011;56608;43.530;-5.652;2022-12-10T06:05:40;13.80;;;2.40;;
69414;SDS011;56608;43.530;-5.652;2022-12-10T06:07:42;8.50;;;2.30;;
69414;SDS011;56608;43.530;-5.652;2022-12-10T06:08:44;5.18;;;2.30;;
69414;SDS011;56608;43.530;-5.652;2022-12-10T06:09:45;4.68;;;2.60;;
69414;SDS011;56608;43.530;-5.652;2022-12-10T06:10:46;5.30;;;2.30;;
69414;SDS011;56608;43.530;-5.652;2022-12-10T06:11:47;7.35;;;2.62;;
69414;SDS011;56608;43.530;-5.652;2022-12-10T06:12:49;6.57;;;3.10;;
69414;SDS011;56608;43.530;-5.652;2022-12-10T06:13:50;7.10;;;2.70;;
69414;SDS011;56608;43.530;-5.652;2022-12-10T06:14:52;10.95;;;2.80;;
69414;SDS011;56608;43.530;-5.652;2022-12-10T06:15:53;5.37;;;2.40;;
69414;SDS011;56608;43.530;-5.652;2022-12-10T06:16:55;8.48;;;2.70;;
69414;SDS011;56608;43.530;-5.652;2022-12-10T06:17:57;5.05;;;2.75;;
69414;SDS011;56608;43.530;-5.652;2022-12-10T06:18:57;7.30;;;2.60;;
69414;SDS011;56608;43.530;-5.652;2022-12-10T06:19:59;7.60;;;2.80;;
69414;SDS011;56608;43.530;-5.652;2022-12-10T06:21:04;5.95;;;2.87;;
69414;SDS011;56608;43.530;-5.652;2022-12-10T06:22:07;7.15;;;2.40;;
69414;SDS011;56608;43.530;-5.652;2022-12-10T06:23:07;5.30;;;2.50;;
69414;SDS011;56608;43.530;-5.652;2022-12-10T06:24:09;8.15;;;2.97;;
69414;SDS011;56608;43.530;-5.652;2022-12-10T06:25:11;6.30;;;2.70;;
69414;SDS011;56608;43.530;-5.652;2022-12-10T06:26:14;7.50;;;3.12;;
69414;SDS011;56608;43.530;-5.652;2022-12-10T06:27:16;4.57;;;2.60;;
69414;SDS011;56608;43.530;-5.652;2022-12-10T06:28:18;6.00;;;2.50;;
69414;SDS011;56608;43.530;-5.652;2022-12-10T06:29:19;5.75;;;2.60;;
69414;SDS011;56608;43.530;-5.652;2022-12-10T06:30:21;5.32;;;2.92;;
69414;SDS011;56608;43.530;-5.652;2022-12-10T06:31:21;8.10;;;2.60;;
69414;SDS011;56608;43.530;-5.652;2022-12-10T06:32:23;7.50;;;2.80;;
69414;SDS011;56608;43.530;-5.652;2022-12-10T06:33:25;5.25;;;2.78;;
69414;SDS011;56608;43.530;-5.652;2022-12-10T06:34:27;5.00;;;2.08;;
69414;SDS011;56608;43.530;-5.652;2022-12-10T06:35:28;4.10;;;1.93;;
69414;SDS011;56608;43.530;-5.652;2022-12-10T06:36:30;7.40;;;2.00;;
69414;SDS011;56608;43.530;-5.652;2022-12-10T06:37:30;4.10;;;2.13;;
69414;SDS011;56608;43.530;-5.652;2022-12-10T06:38:33;5.55;;;2.40;;
69414;SDS011;56608;43.530;-5.652;2022-12-10T06:39:35;7.03;;;1.60;;
69414;SDS011;56608;43.530;-5.652;2022-12-10T06:40:38;3.58;;;1.60;;
69414;SDS011;56608;43.530;-5.652;2022-12-10T06:41:41;5.50;;;1.52;;
69414;SDS011;56608;43.530;-5.652;2022-12-10T06:42:44;5.82;;;1.50;;
69414;SDS011;56608;43.530;-5.652;2022-12-10T06:43:46;4.75;;;2.00;;
69414;SDS011;56608;43.530;-5.652;2022-12-10T06:44:48;3.85;;;1.40;;
69414;SDS011;56608;43.530;-5.652;2022-12-10T06:45:49;3.97;;;1.73;;